createdAt,value
2019-04-30T02:01:34.109Z,83.50
2019-04-30T02:04:03.436Z,83.50
2019-04-30T02:06:32.572Z,83.30
2019-04-30T02:09:04.026Z,83.40
2019-04-30T02:11:34.776Z,83.10
2019-04-30T02:14:04.212Z,82.90
2019-04-30T02:16:33.340Z,82.90
2019-04-30T02:19:03.392Z,82.90
2019-04-30T02:21:33.475Z,82.90
2019-04-30T02:24:03.317Z,82.90
2019-04-30T02:26:32.459Z,82.60
2019-04-30T02:29:03.856Z,82.50
2019-04-30T02:31:33.039Z,82.70
2019-04-30T02:34:10.185Z,82.40
2019-04-30T02:36:43.602Z,82.70
2019-04-30T02:39:12.746Z,82.80
2019-04-30T02:41:41.886Z,83.40
2019-04-30T02:44:11.187Z,83.70
2019-04-30T02:46:41.012Z,83.50
2019-04-30T02:49:10.803Z,82.70
2019-04-30T02:51:40.165Z,82.70
2019-04-30T02:54:11.752Z,82.90
2019-04-30T02:56:42.511Z,82.20
2019-04-30T02:59:11.657Z,82.70
2019-04-30T03:01:40.784Z,82.10
2019-04-30T03:04:10.226Z,82.70
2019-04-30T03:06:40.198Z,82.00
2019-04-30T03:09:10.575Z,82.20
2019-04-30T03:11:40.936Z,82.50
2019-04-30T03:14:10.818Z,82.20
2019-04-30T03:16:52.678Z,82.80
2019-04-30T03:19:29.671Z,82.50
2019-04-30T03:22:00.513Z,82.70
2019-04-30T03:24:30.897Z,82.40
2019-04-30T03:27:00.028Z,81.70
2019-04-30T03:29:31.126Z,81.70
2019-04-30T03:32:02.498Z,81.10
2019-04-30T03:34:32.720Z,80.90
2019-04-30T03:37:04.597Z,81.00
2019-04-30T03:39:34.347Z,81.20
2019-04-30T03:42:03.551Z,81.20
2019-04-30T03:44:32.771Z,81.30
2019-04-30T03:47:03.409Z,81.80
2019-04-30T03:49:32.589Z,82.10
2019-04-30T03:52:02.643Z,82.60
2019-04-30T03:54:31.981Z,81.40
2019-04-30T03:57:03.199Z,81.60
2019-04-30T03:59:33.368Z,81.60
2019-04-30T04:02:12.860Z,81.80
2019-04-30T04:04:43.462Z,81.30
2019-04-30T04:07:30.655Z,80.80
2019-04-30T04:10:19.570Z,80.90
2019-04-30T04:12:49.831Z,80.90
2019-04-30T04:15:20.038Z,80.30
2019-04-30T04:17:50.464Z,81.20
2019-04-30T04:20:20.348Z,81.10
2019-04-30T04:22:50.003Z,80.90
2019-04-30T04:25:20.503Z,80.50
2019-04-30T04:27:50.912Z,81.30
2019-04-30T04:30:20.653Z,81.60
2019-04-30T04:32:50.248Z,81.40
2019-04-30T04:35:20.006Z,81.50
2019-04-30T04:37:49.746Z,80.60
2019-04-30T04:40:20.980Z,82.00
2019-04-30T04:42:51.390Z,82.00
2019-04-30T04:45:20.517Z,81.90
2019-04-30T04:47:50.346Z,82.40
2019-04-30T04:50:20.279Z,81.80
2019-04-30T04:52:49.803Z,82.80
2019-04-30T04:55:21.869Z,83.60
2019-04-30T04:57:50.310Z,83.80
2019-04-30T05:00:19.634Z,84.00
2019-04-30T05:02:56.641Z,84.40
2019-04-30T05:05:25.767Z,83.80
2019-04-30T05:07:54.904Z,83.30
2019-04-30T05:10:24.043Z,83.10
2019-04-30T05:12:53.440Z,83.10
2019-04-30T05:15:22.563Z,82.70
2019-04-30T05:17:51.704Z,83.20
2019-04-30T05:20:20.832Z,84.00
2019-04-30T05:22:49.960Z,84.70
2019-04-30T05:25:19.108Z,84.70
2019-04-30T05:27:48.847Z,85.00
2019-04-30T05:30:19.778Z,84.90
2019-04-30T05:32:50.911Z,84.90
2019-04-30T05:35:20.000Z,84.60
2019-04-30T05:37:49.579Z,85.20
2019-04-30T05:40:19.074Z,86.40
2019-04-30T05:42:49.656Z,85.70
2019-04-30T05:45:19.347Z,85.90
2019-04-30T05:47:50.481Z,85.80
2019-04-30T05:50:20.028Z,86.10
2019-04-30T05:52:49.502Z,86.20
2019-04-30T05:55:19.758Z,85.30
2019-04-30T05:57:56.005Z,85.20
2019-04-30T06:00:20.018Z,85.40
2019-04-30T06:02:50.227Z,85.40
2019-04-30T06:05:19.367Z,85.20
2019-04-30T06:07:51.570Z,85.60
2019-04-30T06:10:39.537Z,85.30
2019-04-30T06:13:09.904Z,85.50
2019-04-30T06:15:42.025Z,85.00
2019-04-30T06:18:13.885Z,84.60
2019-04-30T06:20:41.997Z,83.80
2019-04-30T06:23:11.129Z,84.40
2019-04-30T06:25:55.540Z,83.90
2019-04-30T06:28:11.764Z,83.50
2019-04-30T06:30:40.957Z,83.40
2019-04-30T06:33:11.727Z,83.90
2019-04-30T06:35:41.175Z,83.40
2019-04-30T06:38:10.321Z,84.10
2019-04-30T06:40:39.749Z,82.30
2019-04-30T06:43:09.275Z,81.20
2019-04-30T06:45:38.908Z,80.80
2019-04-30T06:48:09.007Z,80.30
2019-04-30T06:50:39.345Z,80.20
2019-04-30T06:53:09.295Z,80.40
2019-04-30T06:55:39.173Z,79.40
2019-04-30T06:58:15.077Z,79.10
2019-04-30T07:00:39.976Z,78.20
2019-04-30T07:03:10.080Z,78.50
2019-04-30T07:05:40.752Z,79.30
2019-04-30T07:08:37.254Z,80.30
2019-04-30T07:11:17.172Z,77.50
2019-04-30T07:13:49.521Z,77.90
2019-04-30T07:16:19.122Z,77.60
2019-04-30T07:18:48.967Z,76.60
2019-04-30T07:21:19.784Z,77.00
2019-04-30T07:23:49.224Z,75.10
2019-04-30T07:26:19.809Z,74.80
2019-04-30T07:28:54.705Z,75.30
2019-04-30T07:31:20.329Z,75.80
2019-04-30T07:33:53.017Z,75.70
2019-04-30T07:36:20.753Z,76.30
2019-04-30T07:38:56.270Z,76.00
2019-04-30T07:41:20.869Z,76.00
2019-04-30T07:43:50.033Z,73.40
2019-04-30T07:46:19.948Z,74.00
2019-04-30T07:48:50.173Z,74.60
2019-04-30T07:51:21.223Z,73.30
2019-04-30T07:53:50.462Z,70.40
2019-04-30T07:56:25.737Z,71.00
2019-04-30T07:58:50.650Z,73.10
2019-04-30T08:01:19.878Z,72.30
2019-04-30T08:03:51.022Z,73.20
2019-04-30T08:06:22.482Z,71.30
2019-04-30T08:08:57.099Z,70.60
2019-04-30T08:11:26.192Z,69.80
2019-04-30T08:13:53.438Z,70.70
2019-04-30T08:16:22.629Z,70.70
2019-04-30T08:18:51.844Z,71.30
2019-04-30T08:21:20.980Z,70.90
2019-04-30T08:23:50.131Z,72.10
2019-04-30T08:26:19.265Z,70.90
2019-04-30T08:28:48.856Z,69.90
2019-04-30T08:31:19.580Z,70.30
2019-04-30T08:33:49.157Z,70.50
2019-04-30T08:36:19.673Z,67.70
2019-04-30T08:38:49.541Z,68.50
2019-04-30T08:41:19.431Z,68.20
2019-04-30T08:43:49.682Z,65.70
2019-04-30T08:46:19.263Z,67.60
2019-04-30T08:48:51.618Z,67.80
2019-04-30T08:51:19.553Z,66.10
2019-04-30T08:53:49.144Z,66.20
2019-04-30T08:56:21.635Z,66.00
2019-04-30T08:58:49.233Z,65.80
2019-04-30T09:01:19.629Z,65.40
2019-04-30T09:03:50.970Z,63.30
2019-04-30T09:06:21.774Z,63.20
2019-04-30T09:08:51.736Z,62.90
2019-04-30T09:11:27.355Z,64.50
2019-04-30T09:13:51.712Z,64.00
2019-04-30T09:16:20.842Z,63.50
2019-04-30T09:18:51.606Z,62.40
2019-04-30T09:21:20.733Z,62.60
2019-04-30T09:23:52.774Z,62.20
2019-04-30T09:26:21.784Z,62.60
2019-04-30T09:28:50.927Z,64.20
2019-04-30T09:31:20.066Z,63.60
2019-04-30T09:33:49.409Z,62.40
2019-04-30T09:36:20.546Z,62.70
2019-04-30T09:38:49.412Z,61.40
2019-04-30T09:41:19.268Z,61.90
2019-04-30T09:43:49.372Z,62.00
2019-04-30T09:46:26.607Z,62.70
2019-04-30T09:48:50.822Z,61.10
2019-04-30T09:51:24.603Z,61.80
2019-04-30T09:53:58.698Z,62.30
2019-04-30T09:56:23.520Z,63.10
2019-04-30T09:58:52.653Z,63.10
2019-04-30T10:01:22.118Z,62.00
2019-04-30T10:03:52.734Z,63.50
2019-04-30T10:06:36.321Z,63.40
2019-04-30T10:08:54.285Z,63.20
2019-04-30T10:11:27.988Z,62.80
2019-04-30T10:13:57.389Z,63.50
2019-04-30T10:16:30.863Z,64.20
2019-04-30T10:19:01.387Z,63.80
2019-04-30T10:21:30.757Z,64.40
2019-04-30T10:24:12.293Z,64.60
2019-04-30T10:26:30.733Z,62.50
2019-04-30T10:29:00.573Z,62.00
2019-04-30T10:31:29.776Z,60.10
2019-04-30T10:33:58.929Z,61.10
2019-04-30T10:36:29.566Z,61.70
2019-04-30T10:38:59.521Z,61.60
2019-04-30T10:41:30.437Z,60.20
2019-04-30T10:43:59.597Z,60.00
2019-04-30T10:46:28.873Z,60.80
2019-04-30T10:48:58.016Z,63.40
2019-04-30T10:51:28.818Z,63.80
2019-04-30T10:53:59.183Z,62.00
2019-04-30T10:56:29.181Z,61.10
2019-04-30T10:58:58.457Z,61.50
2019-04-30T11:01:29.198Z,62.10
2019-04-30T11:03:58.487Z,62.20
2019-04-30T11:06:28.696Z,60.70
2019-04-30T11:08:58.308Z,60.10
2019-04-30T11:11:28.320Z,62.50
2019-04-30T11:13:58.874Z,62.80
2019-04-30T11:16:29.760Z,61.00
2019-04-30T11:18:59.518Z,59.80
2019-04-30T11:21:29.620Z,61.80
2019-04-30T11:23:59.472Z,60.80
2019-04-30T11:26:31.151Z,61.10
2019-04-30T11:28:59.855Z,61.50
2019-04-30T11:31:34.428Z,58.40
2019-04-30T11:34:04.959Z,59.30
2019-04-30T11:36:34.184Z,58.40
2019-04-30T11:39:05.276Z,58.80
2019-04-30T11:41:34.586Z,57.70
2019-04-30T11:44:04.577Z,56.60
2019-04-30T11:46:51.982Z,57.50
2019-04-30T11:49:21.143Z,56.40
2019-04-30T11:51:50.280Z,56.30
2019-04-30T11:54:21.265Z,56.20
2019-04-30T11:56:50.558Z,54.50
2019-04-30T11:59:19.752Z,54.40
2019-04-30T12:01:51.517Z,55.10
2019-04-30T12:04:20.663Z,54.60
2019-04-30T12:06:50.261Z,54.20
2019-04-30T12:09:21.056Z,53.50
2019-04-30T12:11:50.683Z,52.80
2019-04-30T12:14:20.254Z,52.80
2019-04-30T12:16:50.737Z,51.70
2019-04-30T12:19:20.065Z,51.90
2019-04-30T12:21:49.221Z,53.50
2019-04-30T12:24:18.374Z,50.90
2019-04-30T12:26:48.872Z,49.30
2019-04-30T12:29:19.131Z,49.30
2019-04-30T12:31:48.612Z,48.80
2019-04-30T12:34:17.768Z,49.60
2019-04-30T12:36:46.905Z,50.00
2019-04-30T12:39:16.052Z,49.90
2019-04-30T12:41:45.201Z,48.60
2019-04-30T12:44:14.669Z,49.40
2019-04-30T12:46:43.805Z,48.70
2019-04-30T12:49:13.625Z,49.40
2019-04-30T12:51:50.681Z,48.60
2019-04-30T12:54:21.533Z,48.30
2019-04-30T12:57:04.365Z,45.90
2019-04-30T12:59:34.154Z,46.00
2019-04-30T13:02:04.161Z,49.20
2019-04-30T13:04:33.296Z,49.20
2019-04-30T13:07:03.064Z,47.90
2019-04-30T13:09:33.236Z,47.20
2019-04-30T13:12:03.812Z,48.30
2019-04-30T13:14:35.805Z,48.80
2019-04-30T13:17:04.304Z,48.50
2019-04-30T13:19:33.441Z,49.60
2019-04-30T13:22:02.589Z,50.00
2019-04-30T13:24:31.866Z,51.20
2019-04-30T13:27:01.414Z,50.00
2019-04-30T13:29:32.208Z,49.50
2019-04-30T13:32:01.346Z,49.80
2019-04-30T13:34:50.497Z,50.70
2019-04-30T13:37:19.633Z,49.30
2019-04-30T13:39:56.484Z,48.90
2019-04-30T13:42:29.226Z,49.70
2019-04-30T13:44:58.175Z,48.40
2019-04-30T13:47:29.138Z,49.80
2019-04-30T13:49:59.355Z,49.00
2019-04-30T13:52:28.851Z,50.10
2019-04-30T13:54:59.601Z,49.50
2019-04-30T13:57:29.822Z,49.70
2019-04-30T13:59:58.972Z,48.90
2019-04-30T14:02:29.750Z,48.30
2019-04-30T14:05:03.199Z,48.80
2019-04-30T14:07:33.985Z,49.20
2019-04-30T14:10:04.300Z,49.20
2019-04-30T14:12:35.948Z,49.00
2019-04-30T14:15:09.203Z,48.40
2019-04-30T14:17:40.017Z,47.20
2019-04-30T14:20:08.795Z,48.00
2019-04-30T14:22:37.940Z,48.50
2019-04-30T14:25:07.073Z,48.30
2019-04-30T14:27:48.534Z,48.30
2019-04-30T14:30:09.760Z,46.90
2019-04-30T14:32:39.633Z,46.90
2019-04-30T14:35:09.130Z,47.30
2019-04-30T14:37:38.855Z,45.70
2019-04-30T14:40:12.131Z,45.90
2019-04-30T14:42:41.104Z,46.50
2019-04-30T14:45:12.626Z,45.90
2019-04-30T14:47:44.881Z,45.60
2019-04-30T14:50:18.485Z,45.00
2019-04-30T14:52:49.022Z,45.90
2019-04-30T14:55:19.814Z,46.50
2019-04-30T14:57:51.334Z,44.80
2019-04-30T15:00:40.228Z,44.70
2019-04-30T15:03:11.020Z,44.20
2019-04-30T15:05:48.499Z,43.70
2019-04-30T15:08:11.331Z,44.00
2019-04-30T15:10:40.567Z,43.60
2019-04-30T15:13:09.844Z,43.80
2019-04-30T15:15:39.230Z,43.60
2019-04-30T15:18:09.230Z,42.90
2019-04-30T15:20:39.768Z,42.40
2019-04-30T15:23:19.050Z,41.30
2019-04-30T15:25:42.581Z,41.80
2019-04-30T15:28:11.729Z,41.30
2019-04-30T15:30:42.117Z,41.70
2019-04-30T15:33:23.171Z,41.90
2019-04-30T15:35:52.304Z,41.70
2019-04-30T15:38:23.101Z,40.70
2019-04-30T15:40:52.255Z,40.90
2019-04-30T15:43:21.582Z,41.60
2019-04-30T15:45:50.810Z,40.80
2019-04-30T15:48:21.007Z,40.50
2019-04-30T15:50:50.178Z,39.80
2019-04-30T15:53:19.463Z,39.20
2019-04-30T15:55:49.294Z,39.60
2019-04-30T15:58:20.101Z,38.90
2019-04-30T16:00:49.458Z,38.40
2019-04-30T16:03:20.430Z,38.10
2019-04-30T16:05:51.252Z,38.50
2019-04-30T16:08:29.048Z,39.00
2019-04-30T16:11:02.667Z,38.70
2019-04-30T16:13:49.540Z,38.00
2019-04-30T16:16:20.216Z,38.00
2019-04-30T16:18:50.440Z,39.00
2019-04-30T16:21:19.578Z,38.20
2019-04-30T16:23:49.242Z,38.70
2019-04-30T16:26:19.523Z,38.30
2019-04-30T16:28:49.492Z,38.30
2019-04-30T16:31:20.491Z,37.30
2019-04-30T16:33:50.847Z,38.10
2019-04-30T16:36:19.979Z,38.90
2019-04-30T16:38:49.140Z,39.00
2019-04-30T16:41:30.435Z,40.00
2019-04-30T16:43:49.353Z,40.70
2019-04-30T16:46:18.641Z,41.20
2019-04-30T16:48:49.263Z,41.70
2019-04-30T16:51:18.862Z,41.80
2019-04-30T16:53:48.678Z,42.10
2019-04-30T16:56:19.003Z,42.90
2019-04-30T16:59:02.030Z,43.70
2019-04-30T17:01:32.751Z,44.20
2019-04-30T17:04:19.908Z,45.20
2019-04-30T17:06:56.620Z,45.00
2019-04-30T17:09:37.892Z,45.70
2019-04-30T17:12:08.696Z,46.50
2019-04-30T17:14:39.473Z,46.70
2019-04-30T17:17:08.629Z,46.80
2019-04-30T17:19:39.362Z,47.90
2019-04-30T17:22:08.608Z,48.10
2019-04-30T17:24:39.404Z,48.30
2019-04-30T17:27:17.138Z,48.30
2019-04-30T17:29:39.507Z,48.90
2019-04-30T17:32:10.577Z,48.40
2019-04-30T17:34:39.488Z,49.50
2019-04-30T17:37:09.095Z,49.50
2019-04-30T17:39:40.897Z,49.40
2019-04-30T17:42:09.473Z,49.80
2019-04-30T17:44:39.726Z,50.40
2019-04-30T17:47:09.141Z,51.20
2019-04-30T17:49:38.377Z,50.90
2019-04-30T17:52:08.852Z,51.30
2019-04-30T17:54:38.147Z,51.80
2019-04-30T17:57:10.434Z,52.20
2019-04-30T17:59:38.124Z,52.30
2019-04-30T18:02:09.655Z,52.70
2019-04-30T18:04:38.856Z,52.80
2019-04-30T18:07:09.921Z,52.50
2019-04-30T18:09:39.717Z,53.50
2019-04-30T18:12:09.363Z,53.40
2019-04-30T18:14:39.580Z,54.00
2019-04-30T18:17:10.249Z,54.30
2019-04-30T18:19:41.074Z,54.60
2019-04-30T18:22:20.860Z,55.30
2019-04-30T18:25:07.057Z,55.30
2019-04-30T18:27:45.650Z,55.40
2019-04-30T18:30:10.671Z,55.40
2019-04-30T18:32:40.308Z,56.00
2019-04-30T18:35:09.443Z,56.10
2019-04-30T18:37:39.212Z,56.40
2019-04-30T18:40:09.579Z,56.90
2019-04-30T18:42:39.549Z,57.10
2019-04-30T18:45:09.160Z,57.80
2019-04-30T18:47:40.379Z,58.50
2019-04-30T18:50:09.524Z,59.30
2019-04-30T18:52:39.123Z,60.00
2019-04-30T18:55:09.306Z,60.40
2019-04-30T18:57:38.752Z,60.40
2019-04-30T19:00:09.965Z,61.10
2019-04-30T19:02:40.501Z,61.90
2019-04-30T19:05:11.397Z,62.70
2019-04-30T19:07:45.148Z,63.10
2019-04-30T19:10:19.156Z,63.30
2019-04-30T19:12:55.991Z,64.10
2019-04-30T19:15:48.517Z,64.40
2019-04-30T19:18:06.833Z,64.50
2019-04-30T19:20:38.549Z,63.00
2019-04-30T19:23:10.001Z,63.30
2019-04-30T19:25:38.713Z,64.20
2019-04-30T19:28:12.097Z,64.40
2019-04-30T19:30:39.418Z,64.90
2019-04-30T19:33:08.751Z,65.40
2019-04-30T19:35:37.988Z,66.30
2019-04-30T19:38:09.096Z,66.50
2019-04-30T19:40:39.158Z,66.40
2019-04-30T19:43:08.376Z,66.60
2019-04-30T19:45:38.492Z,66.70
2019-04-30T19:48:09.050Z,66.80
2019-04-30T19:50:38.257Z,66.70
2019-04-30T19:53:08.795Z,67.10
2019-04-30T19:55:39.455Z,67.20
2019-04-30T19:58:10.665Z,67.40
2019-04-30T20:00:39.512Z,67.20
2019-04-30T20:03:08.987Z,68.10
2019-04-30T20:05:39.403Z,67.50
2019-04-30T20:08:10.949Z,67.90
2019-04-30T20:10:39.937Z,68.80
2019-04-30T20:13:10.812Z,67.70
2019-04-30T20:15:40.209Z,68.10
2019-04-30T20:18:09.355Z,68.10
2019-04-30T20:20:40.148Z,69.20
2019-04-30T20:23:09.276Z,68.80
2019-04-30T20:25:38.424Z,69.00
2019-04-30T20:28:08.125Z,68.80
2019-04-30T20:30:39.220Z,69.10
2019-04-30T20:33:09.078Z,69.30
2019-04-30T20:35:39.015Z,69.30
2019-04-30T20:38:10.909Z,69.30
2019-04-30T20:40:43.614Z,69.50
2019-04-30T20:43:12.575Z,70.10
2019-04-30T20:45:41.703Z,70.20
2019-04-30T20:48:10.869Z,70.10
2019-04-30T20:50:40.031Z,70.40
2019-04-30T20:53:09.161Z,70.50
2019-04-30T20:55:40.566Z,70.30
2019-04-30T20:58:09.548Z,70.60
2019-04-30T21:00:38.835Z,70.40
2019-04-30T21:03:09.713Z,71.00
2019-04-30T21:05:40.404Z,70.50
2019-04-30T21:08:09.798Z,71.20
2019-04-30T21:10:39.654Z,71.50
2019-04-30T21:13:10.927Z,72.00
2019-04-30T21:15:40.440Z,71.60
2019-04-30T21:18:09.591Z,72.20
2019-04-30T21:20:38.904Z,72.60
2019-04-30T21:23:09.430Z,72.40
2019-04-30T21:25:38.830Z,72.40
2019-04-30T21:28:09.721Z,72.40
2019-04-30T21:30:39.076Z,72.20
2019-04-30T21:33:10.414Z,72.40
2019-04-30T21:35:44.106Z,72.50
2019-04-30T21:38:13.332Z,72.30
2019-04-30T21:40:42.488Z,73.50
2019-04-30T21:43:11.612Z,72.70
2019-04-30T21:45:40.748Z,72.70
2019-04-30T21:48:10.997Z,72.40
2019-04-30T21:50:40.153Z,72.60
2019-04-30T21:53:09.884Z,72.70
2019-04-30T21:55:39.790Z,72.50
2019-04-30T21:58:29.689Z,72.60
2019-04-30T22:01:06.717Z,73.60
2019-04-30T22:03:36.327Z,73.40
2019-04-30T22:06:05.480Z,73.70
2019-04-30T22:08:34.618Z,74.00
2019-04-30T22:11:04.575Z,73.30
2019-04-30T22:13:33.712Z,73.40
